Flight Number: EUR1139 Duration: 1:15
Departure: Gatwick Airport (EGKK) at 06:00 Distance: 340 Nm
Arrival: Frankfurt Airport (EDDF) at 07:15 Equipment: A321

Weather Information
London / Gatwick Airport, United Kingdom (EGKK) 51-09N 000-11W 0M Aug 19, 2018 - 04:50 AM EDT / 2018.08.19 0850 UTC
Wind: from the SW (220 degrees) at 13 MPH (11 KT) (direction variable):0
Visibility: greater than 7 mile(s):0
Sky conditions: mostly cloudy Temperature: 64 F (18 C) Dew Point: 59 F (15 C) Relative Humidity: 82% Pressure (altimeter): 30.09 in. Hg (1019 hPa)
ob: EGKK 190850Z 22011KT 180V250 9999 BKN013 18/15 Q1019 cycle: 9
Sunrise: 04:58 Sunset: 19:10 (UTC)

Frankfurt / M-Flughafen, Germany (EDDF) 50-03N 008-36E 113M Aug 19, 2018 - 04:50 AM EDT / 2018.08.19 0850 UTC
Wind: Variable at 3 MPH (3 KT):0
Visibility: greater than 7 mile(s):0 Temperature: 75 F (24 C) Dew Point: 50 F (10 C) Relative Humidity: 41% Pressure (altimeter): 30.18 in. Hg (1022 hPa)
ob: EDDF 190850Z VRB03KT CAVOK 24/10 Q1022 NOSIG cycle: 9
Sunrise: 04:26 Sunset: 18:32 (UTC)

TAF:2018/08/19 06:28 TAF EDDF 190500Z 1906/2012 05002KT CAVOK BECMG 1907/1910 25007KT BECMG 1919/1921 22002KT

Previous Pireps for this route
Date Aircraft Flight time Fuel used Landing rate On time
2012-09-01A3211.2911999-413No
2012-10-01A32101.119490-285No
2012-11-20MD-8101.208416-671No
2013-03-09B74701.3310375-520Charter
2013-03-27MD-8101.198371-289No
2013-04-03B7771.3194480Charter
2013-07-27A32101.2710514-432Yes
2013-08-20B73701.3313449-96Charter
2013-09-25A3211,2010No
2013-11-13B7771.20204570Charter
2013-12-15A32101.538971-437No
2014-01-19CRJ7001.1530220Charter
2014-03-12B7371.2081530No
2014-06-11B7371.2383000No
2014-08-21MD-8101.2510405-221Charter
2015-02-24MD-8101.108437-229Yes
2015-03-13MD-8101.128289-150Yes
2015-04-02A32101.288918-388No
2015-04-15B73701.275107-257Yes
2015-06-03MD-811.23125780No
2015-11-25A32101.399750-285Charter
2016-02-06B73701.2713290-425Yes
2016-03-18B73701.166641-161Yes
2016-04-03A32101.4110817-327.69No
2016-04-10A32101.398652-560.77No
2016-04-16A32101.398496-484.61No
2016-04-23B1900D01.381202-170Charter
2016-05-27B73701.2112082-236Yes
2016-07-23B73701.167571-179Charter
2016-09-12A32101.339503-422.31No
2016-09-12A32101.4510057-446.15No
2017-02-19B73701.337693-472Charter
2017-07-30MD-811.406793-1239No
2017-08-20B73701.207393-294Charter
2018-06-10B73701.1340042-339Charter
(pireps marked green are flown by you)

Route map